Mount Vernon, South Dakota
Current Conditions -  °F | °C
As of 5:53 PM on Thursday 27 Nov 2014 (Local Time) from KMHE Reporting Station
Overcast Overcast  
Wind Chill:   Ceiling: 9000
Heat Index: 16°   Visibility: 10mi
Dew Point:   Wind: 16mph
Humidity: 74%   Direction: 130°SE
Pressure: 30.16"   Gusts: NA
Location:  43.71°N, 98.26°W
Report Text: KMHE 272353Z AUTO 13014KT 10SM OVC090 M09/M13 A3016 RMK AO2 SLP243 60000 T10891128 11089 21111 58025
Loading
Personal Weather Stations






























Interactive Weather Map New forecast layout! Learn more

10-Day Weather Forecast

Advertisements
Track Severe Weather on mobile